createdAt,value
2017-11-27T00:01:40.694Z,5.60
2017-11-27T00:04:08.987Z,5.70
2017-11-27T00:06:36.549Z,5.60
2017-11-27T00:09:04.059Z,5.60
2017-11-27T00:11:31.585Z,5.40
2017-11-27T00:13:59.074Z,5.70
2017-11-27T00:16:26.583Z,5.40
2017-11-27T00:18:54.100Z,5.40
2017-11-27T00:21:21.603Z,5.70
2017-11-27T00:23:49.147Z,5.70
2017-11-27T00:26:16.680Z,5.90
2017-11-27T00:28:44.170Z,5.60
2017-11-27T00:31:12.458Z,5.90
2017-11-27T00:33:39.986Z,5.50
2017-11-27T00:36:07.475Z,5.90
2017-11-27T00:38:35.747Z,5.80
2017-11-27T00:41:03.254Z,5.40
2017-11-27T00:43:30.751Z,5.80
2017-11-27T00:45:59.001Z,5.40
2017-11-27T00:48:26.534Z,5.90
2017-11-27T00:50:54.024Z,5.90
2017-11-27T00:53:21.555Z,5.80
2017-11-27T00:55:49.070Z,5.90
2017-11-27T00:58:17.336Z,6.00
2017-11-27T01:00:45.610Z,5.90
2017-11-27T01:03:13.883Z,5.70
2017-11-27T01:05:42.222Z,6.00
2017-11-27T01:08:09.703Z,5.70
2017-11-27T01:10:37.242Z,5.90
2017-11-27T01:13:04.738Z,5.90
2017-11-27T01:15:33.027Z,5.80
2017-11-27T01:18:00.623Z,5.90
2017-11-27T01:20:28.134Z,5.70
2017-11-27T01:22:56.415Z,6.00
2017-11-27T01:25:24.706Z,5.70
2017-11-27T01:27:52.962Z,5.70
2017-11-27T01:30:21.351Z,5.50
2017-11-27T01:32:49.634Z,5.70
2017-11-27T01:35:17.899Z,5.10
2017-11-27T01:37:46.156Z,5.10
2017-11-27T01:40:13.731Z,5.40
2017-11-27T01:42:42.014Z,5.30
2017-11-27T01:45:10.266Z,5.10
2017-11-27T01:47:37.769Z,5.40
2017-11-27T01:50:05.284Z,5.10
2017-11-27T01:52:32.803Z,5.10
2017-11-27T01:55:00.322Z,5.40
2017-11-27T01:57:28.599Z,5.10
2017-11-27T01:59:56.876Z,5.40
2017-11-27T02:02:25.162Z,5.40
2017-11-27T02:04:53.413Z,5.40
2017-11-27T02:07:20.912Z,5.20
2017-11-27T02:09:48.443Z,5.20
2017-11-27T02:12:16.706Z,5.10
2017-11-27T02:14:44.208Z,5.10
2017-11-27T02:17:11.779Z,5.40
2017-11-27T02:19:39.279Z,5.70
2017-11-27T02:22:06.793Z,5.70
2017-11-27T02:24:34.315Z,5.70
2017-11-27T02:27:02.565Z,5.70
2017-11-27T02:29:30.050Z,5.30
2017-11-27T02:31:58.330Z,5.70
2017-11-27T02:34:26.637Z,5.70
2017-11-27T02:36:54.122Z,5.50
2017-11-27T02:39:21.658Z,5.40
2017-11-27T02:41:49.204Z,5.50
2017-11-27T02:44:16.680Z,5.40
2017-11-27T02:46:44.193Z,5.60
2017-11-27T02:49:11.674Z,5.90
2017-11-27T02:51:39.165Z,5.80
2017-11-27T02:54:06.684Z,5.80
2017-11-27T02:56:34.204Z,6.00
2017-11-27T02:59:01.696Z,6.00
2017-11-27T03:01:29.979Z,5.60
2017-11-27T03:03:58.238Z,5.90
2017-11-27T03:06:26.501Z,5.90
2017-11-27T03:08:54.019Z,5.90
2017-11-27T03:11:21.508Z,6.00
2017-11-27T03:13:49.017Z,5.90
2017-11-27T03:16:16.522Z,5.80
2017-11-27T03:18:44.002Z,6.00
2017-11-27T03:21:12.294Z,6.00
2017-11-27T03:23:39.829Z,5.70
2017-11-27T03:26:07.355Z,6.00
2017-11-27T03:28:34.871Z,5.50
2017-11-27T03:31:03.130Z,5.90
2017-11-27T03:33:31.413Z,5.70
2017-11-27T03:35:59.686Z,5.80
2017-11-27T03:38:27.204Z,6.00
2017-11-27T03:40:54.701Z,5.50
2017-11-27T03:43:22.220Z,6.00
2017-11-27T03:45:49.728Z,5.90
2017-11-27T03:48:17.987Z,5.70
2017-11-27T03:50:45.520Z,5.80
2017-11-27T03:53:13.018Z,5.40
2017-11-27T03:55:41.296Z,5.70
2017-11-27T03:58:09.558Z,5.70
2017-11-27T04:00:37.087Z,5.70
2017-11-27T04:03:04.600Z,5.40
2017-11-27T04:05:32.860Z,5.60
2017-11-27T04:08:00.358Z,5.70
2017-11-27T04:10:27.857Z,5.70
2017-11-27T04:12:55.370Z,5.70
2017-11-27T04:15:22.879Z,5.20
2017-11-27T04:17:50.404Z,5.70
2017-11-27T04:20:17.909Z,5.70
2017-11-27T04:22:45.524Z,5.60
2017-11-27T04:25:13.031Z,5.20
2017-11-27T04:27:40.511Z,5.40
2017-11-27T04:30:08.783Z,5.20
2017-11-27T04:32:36.294Z,5.60
2017-11-27T04:35:03.780Z,5.70
2017-11-27T04:37:31.279Z,5.70
2017-11-27T04:39:58.769Z,5.60
2017-11-27T04:42:26.279Z,5.70
2017-11-27T04:44:54.536Z,5.40
2017-11-27T04:47:22.053Z,5.40
2017-11-27T04:49:49.567Z,5.70
2017-11-27T04:52:17.827Z,5.80
2017-11-27T04:54:45.323Z,5.60
2017-11-27T04:57:12.828Z,5.40
2017-11-27T04:59:40.331Z,5.40
2017-11-27T05:02:07.819Z,5.70
2017-11-27T05:04:35.336Z,5.60
2017-11-27T05:07:03.594Z,5.40
2017-11-27T05:09:31.086Z,5.90
2017-11-27T05:11:58.598Z,5.80
2017-11-27T05:14:26.092Z,5.50
2017-11-27T05:16:54.393Z,5.50
2017-11-27T05:19:22.088Z,6.00
2017-11-27T05:21:49.600Z,6.00
2017-11-27T05:24:17.107Z,6.00
2017-11-27T05:26:44.595Z,5.70
2017-11-27T05:29:12.871Z,5.90
2017-11-27T05:31:41.135Z,6.00
2017-11-27T05:34:09.426Z,6.00
2017-11-27T05:36:37.708Z,5.90
2017-11-27T05:39:05.982Z,6.00
2017-11-27T05:41:34.249Z,6.00
2017-11-27T05:44:02.539Z,5.70
2017-11-27T05:46:30.822Z,5.90
2017-11-27T05:48:59.100Z,6.00
2017-11-27T05:51:27.385Z,6.00
2017-11-27T05:53:54.888Z,6.00
2017-11-27T05:56:22.424Z,6.10
2017-11-27T05:58:49.928Z,6.00
2017-11-27T06:01:17.429Z,6.00
2017-11-27T06:03:44.978Z,5.90
2017-11-27T06:06:12.492Z,5.80
2017-11-27T06:08:40.009Z,6.00
2017-11-27T06:11:07.507Z,6.10
2017-11-27T06:13:35.044Z,5.80
2017-11-27T06:16:02.535Z,6.20
2017-11-27T06:18:30.736Z,6.40
2017-11-27T06:20:59.022Z,6.30
2017-11-27T06:23:26.510Z,6.40
2017-11-27T06:25:54.054Z,6.40
2017-11-27T06:28:22.295Z,6.30
2017-11-27T06:30:51.362Z,6.30
2017-11-27T06:33:18.859Z,6.20
2017-11-27T06:35:47.115Z,6.40
2017-11-27T06:38:14.623Z,6.30
2017-11-27T06:40:42.140Z,6.30
2017-11-27T06:43:10.458Z,6.50
2017-11-27T06:45:37.964Z,6.20
2017-11-27T06:48:05.488Z,6.30
2017-11-27T06:50:32.991Z,6.40
2017-11-27T06:53:01.268Z,6.40
2017-11-27T06:55:28.781Z,6.20
2017-11-27T06:57:56.276Z,6.30
2017-11-27T07:00:23.784Z,6.20
2017-11-27T07:02:51.288Z,6.10
2017-11-27T07:05:18.909Z,6.30
2017-11-27T07:07:46.421Z,6.20
2017-11-27T07:10:14.694Z,6.40
2017-11-27T07:12:42.211Z,6.10
2017-11-27T07:15:09.719Z,6.20
2017-11-27T07:17:38.076Z,6.40
2017-11-27T07:20:05.604Z,6.40
2017-11-27T07:22:33.099Z,6.20
2017-11-27T07:25:00.613Z,6.30
2017-11-27T07:27:28.125Z,6.40
2017-11-27T07:29:55.632Z,6.20
2017-11-27T07:32:23.156Z,6.20
2017-11-27T07:34:51.437Z,6.20
2017-11-27T07:37:25.324Z,6.20
2017-11-27T07:39:53.655Z,6.10
2017-11-27T07:42:21.159Z,6.30
2017-11-27T07:44:48.699Z,6.00
2017-11-27T07:47:16.195Z,6.30
2017-11-27T07:49:44.471Z,5.80
2017-11-27T07:52:12.772Z,6.30
2017-11-27T07:54:41.068Z,6.30
2017-11-27T07:57:08.576Z,6.20
2017-11-27T07:59:36.863Z,6.30
2017-11-27T08:02:05.136Z,6.40
2017-11-27T08:04:33.404Z,6.30
2017-11-27T08:07:01.685Z,6.20
2017-11-27T08:09:29.948Z,6.10
2017-11-27T08:11:57.472Z,6.20
2017-11-27T08:14:24.986Z,6.40
2017-11-27T08:16:53.240Z,5.80
2017-11-27T08:19:20.763Z,6.30
2017-11-27T08:21:48.264Z,6.30
2017-11-27T08:24:15.807Z,6.30
2017-11-27T08:26:43.350Z,6.30
2017-11-27T08:29:10.897Z,6.20
2017-11-27T08:31:38.432Z,5.80
2017-11-27T08:34:05.927Z,6.10
2017-11-27T08:36:33.448Z,5.90
2017-11-27T08:39:00.963Z,6.30
2017-11-27T08:41:28.486Z,6.10
2017-11-27T08:43:55.988Z,6.20
2017-11-27T08:46:23.508Z,6.00
2017-11-27T08:48:51.064Z,6.00
2017-11-27T08:51:18.566Z,6.10
2017-11-27T08:53:46.089Z,6.10
2017-11-27T08:56:13.583Z,5.90
2017-11-27T08:58:41.098Z,6.30
2017-11-27T09:01:08.598Z,6.40
2017-11-27T09:03:36.109Z,6.10
2017-11-27T09:06:03.601Z,6.20
2017-11-27T09:08:31.093Z,6.30
2017-11-27T09:10:59.368Z,6.30
2017-11-27T09:13:27.623Z,6.30
2017-11-27T09:15:55.156Z,6.40
2017-11-27T09:18:22.677Z,6.20
2017-11-27T09:20:50.960Z,6.30
2017-11-27T09:23:18.456Z,6.40
2017-11-27T09:25:45.959Z,6.70
2017-11-27T09:28:14.251Z,6.40
2017-11-27T09:30:41.743Z,6.20
2017-11-27T09:33:09.254Z,6.50
2017-11-27T09:35:37.525Z,6.60
2017-11-27T09:38:05.804Z,6.70
2017-11-27T09:40:34.089Z,6.70
2017-11-27T09:43:02.379Z,6.70
2017-11-27T09:45:29.892Z,6.60
2017-11-27T09:47:57.420Z,6.70
2017-11-27T09:50:25.225Z,6.60
2017-11-27T09:52:52.718Z,6.60
2017-11-27T09:55:20.220Z,6.60
2017-11-27T09:57:47.719Z,6.70
2017-11-27T10:00:16.888Z,6.70
2017-11-27T10:02:44.411Z,6.80
2017-11-27T10:05:11.901Z,6.60
2017-11-27T10:07:39.429Z,6.70
2017-11-27T10:10:06.948Z,6.60
2017-11-27T10:12:35.232Z,6.70
2017-11-27T10:15:03.499Z,6.90
2017-11-27T10:17:31.751Z,6.70
2017-11-27T10:19:59.247Z,7.00
2017-11-27T10:22:27.513Z,6.80
2017-11-27T10:24:55.829Z,6.80
2017-11-27T10:27:24.114Z,7.00
2017-11-27T10:29:51.644Z,7.10
2017-11-27T10:32:19.135Z,6.80
2017-11-27T10:34:46.631Z,7.00
2017-11-27T10:37:14.198Z,7.00
2017-11-27T10:39:42.471Z,7.00
2017-11-27T10:42:09.984Z,7.00
2017-11-27T10:44:37.487Z,7.00
2017-11-27T10:47:05.772Z,7.00
2017-11-27T10:49:34.041Z,7.00
2017-11-27T10:52:01.535Z,6.90
2017-11-27T10:54:29.044Z,7.00
2017-11-27T10:56:56.667Z,7.00
2017-11-27T10:59:24.176Z,7.00
2017-11-27T11:01:52.469Z,7.00
2017-11-27T11:04:20.760Z,6.90
2017-11-27T11:06:48.279Z,6.90
2017-11-27T11:09:15.767Z,6.90
2017-11-27T11:11:44.075Z,6.60
2017-11-27T11:14:11.571Z,7.00
2017-11-27T11:16:39.092Z,7.00
2017-11-27T11:19:06.579Z,6.60
2017-11-27T11:21:34.097Z,7.00
2017-11-27T11:24:01.586Z,7.00
2017-11-27T11:26:29.088Z,6.70
2017-11-27T11:28:57.364Z,6.80
2017-11-27T11:31:25.646Z,6.60
2017-11-27T11:33:53.921Z,7.10
2017-11-27T11:36:22.195Z,6.90
2017-11-27T11:38:50.479Z,6.90
2017-11-27T11:41:18.780Z,6.80
2017-11-27T11:43:46.276Z,7.00
2017-11-27T11:46:13.806Z,7.10
2017-11-27T11:48:41.367Z,6.80
2017-11-27T11:51:08.882Z,6.90
2017-11-27T11:53:37.146Z,7.00
2017-11-27T11:56:04.678Z,7.00
2017-11-27T11:58:32.199Z,7.10
2017-11-27T12:00:59.698Z,7.00
2017-11-27T12:03:27.219Z,7.00
2017-11-27T12:05:54.739Z,7.10
2017-11-27T12:08:23.038Z,7.10
2017-11-27T12:10:51.323Z,7.00
2017-11-27T12:13:19.615Z,7.00
2017-11-27T12:15:47.107Z,6.70
2017-11-27T12:18:14.611Z,6.70
2017-11-27T12:20:42.923Z,6.80
2017-11-27T12:23:10.434Z,6.70
2017-11-27T12:25:37.965Z,6.70
2017-11-27T12:28:05.547Z,7.00
2017-11-27T12:30:33.851Z,7.00
2017-11-27T12:33:01.408Z,6.90
2017-11-27T12:35:28.979Z,6.90
2017-11-27T12:37:56.568Z,6.70
2017-11-27T12:40:24.224Z,7.10
2017-11-27T12:42:51.771Z,7.00
2017-11-27T12:45:19.314Z,7.00
2017-11-27T12:47:46.824Z,7.00
2017-11-27T12:50:14.447Z,7.10
2017-11-27T12:52:42.016Z,7.00
2017-11-27T12:55:09.539Z,6.50
2017-11-27T12:57:38.209Z,7.00
2017-11-27T13:00:05.769Z,6.90
2017-11-27T13:02:33.795Z,6.60
2017-11-27T13:05:01.335Z,6.60
2017-11-27T13:07:28.911Z,6.90
2017-11-27T13:09:56.435Z,6.50
2017-11-27T13:12:24.798Z,7.00
2017-11-27T13:14:52.327Z,6.90
2017-11-27T13:17:19.899Z,6.60
2017-11-27T13:19:47.456Z,6.90
2017-11-27T13:22:14.974Z,6.90
2017-11-27T13:24:42.525Z,7.00
2017-11-27T13:27:10.077Z,7.00
2017-11-27T13:29:37.626Z,7.00
2017-11-27T13:32:05.938Z,7.10
2017-11-27T13:34:33.553Z,7.10
2017-11-27T13:37:01.884Z,7.00
2017-11-27T13:39:29.448Z,6.80
2017-11-27T13:41:57.008Z,7.00
2017-11-27T13:44:24.562Z,6.90
2017-11-27T13:46:52.154Z,7.00
2017-11-27T13:49:19.785Z,6.90
2017-11-27T13:51:47.336Z,7.00
2017-11-27T13:54:15.048Z,7.00
2017-11-27T13:56:43.419Z,7.10
2017-11-27T13:59:10.987Z,7.10
2017-11-27T14:01:38.540Z,7.00
2017-11-27T14:04:06.093Z,7.00
2017-11-27T14:06:33.639Z,7.10
2017-11-27T14:09:01.154Z,7.30
2017-11-27T14:11:28.683Z,7.00
2017-11-27T14:13:56.268Z,7.00
2017-11-27T14:16:23.904Z,6.90
2017-11-27T14:18:51.444Z,7.30
2017-11-27T14:21:18.988Z,7.10
2017-11-27T14:23:46.528Z,7.00
2017-11-27T14:26:14.140Z,7.10
2017-11-27T14:28:41.672Z,7.30
2017-11-27T14:31:09.284Z,7.40
2017-11-27T14:33:37.627Z,7.00
2017-11-27T14:36:05.199Z,7.10
2017-11-27T14:38:32.723Z,7.20
2017-11-27T14:41:00.286Z,7.00
2017-11-27T14:43:27.820Z,7.10
2017-11-27T14:45:55.349Z,7.10
2017-11-27T14:48:22.867Z,7.10
2017-11-27T14:50:50.392Z,7.10
2017-11-27T14:53:17.977Z,7.00
2017-11-27T14:55:45.496Z,7.10
2017-11-27T14:58:13.750Z,7.00
2017-11-27T15:00:41.264Z,7.10
2017-11-27T15:03:08.775Z,6.90
2017-11-27T15:05:36.286Z,6.90
2017-11-27T15:08:03.806Z,7.00
2017-11-27T15:10:32.339Z,7.30
2017-11-27T15:12:59.857Z,7.30
2017-11-27T15:15:27.380Z,7.00
2017-11-27T15:17:54.883Z,7.10
2017-11-27T15:20:22.428Z,7.10
2017-11-27T15:22:50.696Z,6.80
2017-11-27T15:25:18.967Z,7.00
2017-11-27T15:27:47.670Z,7.10
2017-11-27T15:30:15.965Z,7.00
2017-11-27T15:32:43.528Z,7.00
2017-11-27T15:35:11.025Z,7.00
2017-11-27T15:37:38.596Z,6.90
2017-11-27T15:40:06.139Z,7.00
2017-11-27T15:42:33.651Z,7.00
2017-11-27T15:45:01.220Z,6.90
2017-11-27T15:47:28.716Z,7.00
2017-11-27T15:49:56.289Z,6.80
2017-11-27T15:52:23.844Z,6.90
2017-11-27T15:54:51.386Z,7.00
2017-11-27T15:57:18.971Z,7.00
2017-11-27T15:59:46.574Z,7.10
2017-11-27T16:02:14.150Z,6.90
2017-11-27T16:04:41.725Z,7.00
2017-11-27T16:07:09.296Z,7.00
2017-11-27T16:09:36.836Z,7.00
2017-11-27T16:12:04.412Z,7.10
2017-11-27T16:14:32.025Z,7.20
2017-11-27T16:16:59.632Z,7.30
2017-11-27T16:19:27.238Z,7.40
2017-11-27T16:21:54.804Z,7.30
2017-11-27T16:24:23.135Z,7.30
2017-11-27T16:26:50.725Z,7.30
2017-11-27T16:29:19.076Z,7.30
2017-11-27T16:31:46.713Z,7.40
2017-11-27T16:34:14.366Z,7.30
2017-11-27T16:36:41.994Z,7.40
2017-11-27T16:39:10.352Z,7.30
2017-11-27T16:41:37.940Z,7.20
2017-11-27T16:44:05.560Z,7.40
2017-11-27T16:46:33.101Z,7.20
2017-11-27T16:49:00.711Z,7.20
2017-11-27T16:51:28.270Z,7.30
2017-11-27T16:53:55.846Z,7.40
2017-11-27T16:56:24.148Z,7.40
2017-11-27T16:58:51.647Z,7.40
2017-11-27T17:01:19.190Z,7.30
2017-11-27T17:03:46.720Z,7.30
2017-11-27T17:06:14.239Z,7.40
2017-11-27T17:08:42.507Z,7.40
2017-11-27T17:11:10.077Z,7.20
2017-11-27T17:13:37.636Z,7.30
2017-11-27T17:16:05.209Z,7.40
2017-11-27T17:18:33.503Z,7.30
2017-11-27T17:21:01.110Z,7.20
2017-11-27T17:23:28.754Z,7.40
2017-11-27T17:25:56.295Z,7.30
2017-11-27T17:28:23.865Z,7.40
2017-11-27T17:30:51.456Z,7.40
2017-11-27T17:33:19.051Z,7.20
2017-11-27T17:35:47.397Z,7.50
2017-11-27T17:38:15.016Z,7.40
2017-11-27T17:40:42.544Z,7.30
2017-11-27T17:43:10.873Z,7.40
2017-11-27T17:45:38.529Z,7.50
2017-11-27T17:48:06.360Z,7.60
2017-11-27T17:50:34.650Z,7.40
2017-11-27T17:53:02.243Z,7.70
2017-11-27T17:55:29.764Z,7.70
2017-11-27T17:57:58.066Z,7.80
2017-11-27T18:00:25.629Z,7.70
2017-11-27T18:02:53.176Z,7.80
2017-11-27T18:05:20.749Z,7.80
2017-11-27T18:07:48.319Z,7.70
2017-11-27T18:10:15.919Z,7.70
2017-11-27T18:12:43.476Z,7.60
2017-11-27T18:15:11.054Z,8.10
2017-11-27T18:17:39.352Z,8.00
2017-11-27T18:20:06.925Z,8.00
2017-11-27T18:22:34.566Z,8.10
2017-11-27T18:25:02.204Z,8.10
2017-11-27T18:27:30.767Z,8.10
2017-11-27T18:29:59.181Z,8.00
2017-11-27T18:32:26.731Z,8.30
2017-11-27T18:34:55.101Z,8.10
2017-11-27T18:37:23.480Z,8.10
2017-11-27T18:39:51.920Z,8.10
2017-11-27T18:42:19.487Z,8.10
2017-11-27T18:44:47.044Z,7.70
2017-11-27T18:47:14.667Z,8.00
2017-11-27T18:49:42.240Z,8.10
2017-11-27T18:52:09.834Z,8.10
2017-11-27T18:54:37.433Z,8.10
2017-11-27T18:57:05.711Z,8.00
2017-11-27T18:59:34.193Z,8.00
2017-11-27T19:02:02.561Z,8.20
2017-11-27T19:04:30.933Z,8.10
2017-11-27T19:06:59.241Z,8.00
2017-11-27T19:09:26.919Z,8.10
2017-11-27T19:11:54.485Z,8.10
2017-11-27T19:14:22.067Z,7.70
2017-11-27T19:16:49.716Z,8.00
2017-11-27T19:19:17.316Z,8.00
2017-11-27T19:21:44.898Z,8.10
2017-11-27T19:24:12.489Z,8.10
2017-11-27T19:26:40.074Z,8.10
2017-11-27T19:29:07.668Z,8.10
2017-11-27T19:31:36.025Z,8.10
2017-11-27T19:34:03.662Z,8.10
2017-11-27T19:36:31.257Z,8.10
2017-11-27T19:38:58.831Z,7.90
2017-11-27T19:41:27.215Z,8.10
2017-11-27T19:43:54.780Z,8.10
2017-11-27T19:46:23.086Z,8.40
2017-11-27T19:48:50.654Z,8.10
2017-11-27T19:51:18.227Z,8.50
2017-11-27T19:53:45.923Z,8.60
2017-11-27T19:56:14.261Z,8.80
2017-11-27T19:58:41.812Z,8.80
2017-11-27T20:01:09.383Z,9.00
2017-11-27T20:03:37.046Z,9.20
2017-11-27T20:06:04.704Z,9.00
2017-11-27T20:08:32.324Z,8.90
2017-11-27T20:11:00.637Z,8.90
2017-11-27T20:13:28.429Z,9.10
2017-11-27T20:15:56.070Z,9.20
2017-11-27T20:18:23.778Z,9.10
2017-11-27T20:20:52.134Z,8.90
2017-11-27T20:23:19.721Z,9.10
2017-11-27T20:25:48.064Z,9.30
2017-11-27T20:28:15.714Z,9.20
2017-11-27T20:30:43.316Z,9.20
2017-11-27T20:33:11.661Z,9.30
2017-11-27T20:35:39.201Z,9.20
2017-11-27T20:38:06.852Z,9.20
2017-11-27T20:40:34.387Z,9.30
2017-11-27T20:43:02.063Z,9.20
2017-11-27T20:45:29.664Z,9.20
2017-11-27T20:47:57.213Z,9.30
2017-11-27T20:50:24.768Z,9.30
2017-11-27T20:52:52.334Z,9.30
2017-11-27T20:55:19.937Z,9.30
2017-11-27T20:57:48.263Z,9.20
2017-11-27T21:00:15.840Z,9.30
2017-11-27T21:02:43.425Z,9.30
2017-11-27T21:05:11.074Z,9.40
2017-11-27T21:07:38.656Z,9.30
2017-11-27T21:10:06.977Z,9.10
2017-11-27T21:12:34.556Z,9.30
2017-11-27T21:15:02.164Z,9.20
2017-11-27T21:17:30.540Z,9.30
2017-11-27T21:19:58.196Z,9.30
2017-11-27T21:22:25.795Z,9.30
2017-11-27T21:24:53.342Z,9.20
2017-11-27T21:27:22.955Z,9.30
2017-11-27T21:29:50.505Z,9.30
2017-11-27T21:32:18.078Z,9.20
2017-11-27T21:34:45.678Z,9.30
2017-11-27T21:37:13.250Z,9.30
2017-11-27T21:39:40.872Z,9.20
2017-11-27T21:42:08.431Z,9.40
2017-11-27T21:44:36.769Z,9.30
2017-11-27T21:47:04.312Z,9.30
2017-11-27T21:49:31.816Z,9.70
2017-11-27T21:51:59.393Z,9.40
2017-11-27T21:54:26.936Z,9.80
2017-11-27T21:56:54.479Z,9.50
2017-11-27T21:59:22.035Z,9.60
2017-11-27T22:01:49.640Z,9.30
2017-11-27T22:04:17.201Z,9.40
2017-11-27T22:06:44.797Z,9.40
2017-11-27T22:09:13.131Z,9.00
2017-11-27T22:11:40.695Z,8.90
2017-11-27T22:14:08.233Z,8.90
2017-11-27T22:16:35.832Z,8.80
2017-11-27T22:19:05.020Z,8.50
2017-11-27T22:21:32.585Z,8.40
2017-11-27T22:24:00.139Z,8.10
2017-11-27T22:26:27.651Z,8.40
2017-11-27T22:28:55.952Z,8.20
2017-11-27T22:31:23.486Z,8.10
2017-11-27T22:33:51.833Z,8.20
2017-11-27T22:36:19.584Z,8.10
2017-11-27T22:38:47.227Z,7.80
2017-11-27T22:41:14.732Z,7.60
2017-11-27T22:43:42.253Z,7.80
2017-11-27T22:46:09.865Z,7.80
2017-11-27T22:48:38.349Z,7.80
2017-11-27T22:51:05.886Z,7.70
2017-11-27T22:53:33.428Z,7.70
2017-11-27T22:56:00.936Z,7.50
2017-11-27T22:58:28.443Z,7.50
2017-11-27T23:00:55.968Z,7.40
2017-11-27T23:03:23.473Z,7.50
2017-11-27T23:05:50.982Z,7.50
2017-11-27T23:08:18.514Z,7.40
2017-11-27T23:10:46.806Z,7.40
2017-11-27T23:13:15.070Z,7.50
2017-11-27T23:15:43.332Z,7.50
2017-11-27T23:18:10.861Z,7.30
2017-11-27T23:20:38.423Z,7.40
2017-11-27T23:23:05.959Z,7.10
2017-11-27T23:25:33.511Z,7.10
2017-11-27T23:28:01.061Z,7.20
2017-11-27T23:30:28.620Z,7.20
2017-11-27T23:32:56.962Z,7.00
2017-11-27T23:35:24.472Z,7.00
2017-11-27T23:37:51.975Z,7.00
2017-11-27T23:40:19.483Z,7.10
2017-11-27T23:42:47.057Z,7.10
2017-11-27T23:45:14.617Z,6.90
2017-11-27T23:47:42.121Z,6.90
2017-11-27T23:50:09.630Z,7.20
2017-11-27T23:52:37.132Z,6.90
2017-11-27T23:55:04.684Z,7.00
2017-11-27T23:57:32.235Z,7.00
2017-11-27T23:59:59.739Z,7.10
